sensor_id;sensor_type;location;lat;lon;timestamp;temperature;humidity
5870;DHT22;2961;47.702;9.410;2024-02-26T00:01:51;7.40;95.00
5870;DHT22;2961;47.702;9.410;2024-02-26T00:04:17;7.50;95.10
5870;DHT22;2961;47.702;9.410;2024-02-26T00:06:44;7.50;95.00
5870;DHT22;2961;47.702;9.410;2024-02-26T00:09:11;7.60;94.70
5870;DHT22;2961;47.702;9.410;2024-02-26T00:11:38;7.60;94.60
5870;DHT22;2961;47.702;9.410;2024-02-26T00:14:05;7.70;94.40
5870;DHT22;2961;47.702;9.410;2024-02-26T00:16:32;7.70;94.30
5870;DHT22;2961;47.702;9.410;2024-02-26T00:19:00;7.80;94.30
5870;DHT22;2961;47.702;9.410;2024-02-26T00:21:28;7.80;94.40
5870;DHT22;2961;47.702;9.410;2024-02-26T00:23:55;7.80;94.70
5870;DHT22;2961;47.702;9.410;2024-02-26T00:26:21;7.70;94.70
5870;DHT22;2961;47.702;9.410;2024-02-26T00:28:48;7.70;94.80
5870;DHT22;2961;47.702;9.410;2024-02-26T00:31:15;7.70;94.30
5870;DHT22;2961;47.702;9.410;2024-02-26T00:33:42;7.70;94.70
5870;DHT22;2961;47.702;9.410;2024-02-26T00:36:10;7.80;94.50
5870;DHT22;2961;47.702;9.410;2024-02-26T00:38:37;7.80;94.40
5870;DHT22;2961;47.702;9.410;2024-02-26T00:41:05;7.80;94.30
5870;DHT22;2961;47.702;9.410;2024-02-26T00:43:31;7.80;94.70
5870;DHT22;2961;47.702;9.410;2024-02-26T00:45:59;7.80;94.10
5870;DHT22;2961;47.702;9.410;2024-02-26T00:48:25;7.80;94.50
5870;DHT22;2961;47.702;9.410;2024-02-26T00:50:52;7.80;94.30
5870;DHT22;2961;47.702;9.410;2024-02-26T00:53:20;7.70;94.50
5870;DHT22;2961;47.702;9.410;2024-02-26T00:55:47;7.70;94.30
5870;DHT22;2961;47.702;9.410;2024-02-26T00:58:14;7.70;94.60
5870;DHT22;2961;47.702;9.410;2024-02-26T01:00:41;7.70;94.70
5870;DHT22;2961;47.702;9.410;2024-02-26T01:03:08;7.70;94.70
5870;DHT22;2961;47.702;9.410;2024-02-26T01:05:36;7.70;94.60
5870;DHT22;2961;47.702;9.410;2024-02-26T01:08:03;7.70;94.60
5870;DHT22;2961;47.702;9.410;2024-02-26T01:10:31;7.80;94.80
5870;DHT22;2961;47.702;9.410;2024-02-26T01:12:59;7.70;94.70
5870;DHT22;2961;47.702;9.410;2024-02-26T01:15:26;7.80;94.50
5870;DHT22;2961;47.702;9.410;2024-02-26T01:17:53;7.70;95.00
5870;DHT22;2961;47.702;9.410;2024-02-26T01:20:20;7.70;95.00
5870;DHT22;2961;47.702;9.410;2024-02-26T01:22:47;7.70;94.90
5870;DHT22;2961;47.702;9.410;2024-02-26T01:25:14;7.80;94.60
5870;DHT22;2961;47.702;9.410;2024-02-26T01:27:42;7.80;95.00
5870;DHT22;2961;47.702;9.410;2024-02-26T01:30:10;7.80;95.10
5870;DHT22;2961;47.702;9.410;2024-02-26T01:32:37;7.80;94.80
5870;DHT22;2961;47.702;9.410;2024-02-26T01:35:04;7.80;94.90
5870;DHT22;2961;47.702;9.410;2024-02-26T01:37:33;7.80;95.00
5870;DHT22;2961;47.702;9.410;2024-02-26T01:39:59;7.80;94.90
5870;DHT22;2961;47.702;9.410;2024-02-26T01:42:29;7.80;94.80
5870;DHT22;2961;47.702;9.410;2024-02-26T01:44:57;7.80;94.80
5870;DHT22;2961;47.702;9.410;2024-02-26T01:47:25;7.70;95.50
5870;DHT22;2961;47.702;9.410;2024-02-26T01:49:53;7.70;95.30
5870;DHT22;2961;47.702;9.410;2024-02-26T01:52:21;7.80;94.80
5870;DHT22;2961;47.702;9.410;2024-02-26T01:54:48;7.80;95.10
5870;DHT22;2961;47.702;9.410;2024-02-26T01:57:16;7.80;95.50
5870;DHT22;2961;47.702;9.410;2024-02-26T01:59:43;7.70;95.70
5870;DHT22;2961;47.702;9.410;2024-02-26T02:02:12;7.80;95.40
5870;DHT22;2961;47.702;9.410;2024-02-26T02:04:39;7.80;95.40
5870;DHT22;2961;47.702;9.410;2024-02-26T02:07:06;7.70;95.50
5870;DHT22;2961;47.702;9.410;2024-02-26T02:09:33;7.60;96.00
5870;DHT22;2961;47.702;9.410;2024-02-26T02:12:00;7.70;96.30
5870;DHT22;2961;47.702;9.410;2024-02-26T02:14:27;7.70;95.90
5870;DHT22;2961;47.702;9.410;2024-02-26T02:16:54;7.80;95.30
5870;DHT22;2961;47.702;9.410;2024-02-26T02:19:22;7.90;95.30
5870;DHT22;2961;47.702;9.410;2024-02-26T02:21:50;7.90;95.60
5870;DHT22;2961;47.702;9.410;2024-02-26T02:24:17;7.90;94.90
5870;DHT22;2961;47.702;9.410;2024-02-26T02:26:44;7.90;95.00
5870;DHT22;2961;47.702;9.410;2024-02-26T02:29:11;8.00;95.00
5870;DHT22;2961;47.702;9.410;2024-02-26T02:31:39;8.00;95.10
5870;DHT22;2961;47.702;9.410;2024-02-26T02:34:06;7.90;94.70
5870;DHT22;2961;47.702;9.410;2024-02-26T02:36:33;7.80;95.40
5870;DHT22;2961;47.702;9.410;2024-02-26T02:39:01;7.60;97.20
5870;DHT22;2961;47.702;9.410;2024-02-26T02:41:28;7.40;98.90
5870;DHT22;2961;47.702;9.410;2024-02-26T02:43:55;7.10;99.60
5870;DHT22;2961;47.702;9.410;2024-02-26T02:46:23;6.90;99.90
5870;DHT22;2961;47.702;9.410;2024-02-26T02:48:49;6.60;99.90
5870;DHT22;2961;47.702;9.410;2024-02-26T02:51:16;6.50;99.90
5870;DHT22;2961;47.702;9.410;2024-02-26T02:53:43;6.30;99.90
5870;DHT22;2961;47.702;9.410;2024-02-26T02:56:11;6.20;99.90
5870;DHT22;2961;47.702;9.410;2024-02-26T02:58:38;6.10;99.90
5870;DHT22;2961;47.702;9.410;2024-02-26T03:01:05;6.10;99.90
5870;DHT22;2961;47.702;9.410;2024-02-26T03:03:32;6.00;99.90
5870;DHT22;2961;47.702;9.410;2024-02-26T03:05:59;6.00;99.90
5870;DHT22;2961;47.702;9.410;2024-02-26T03:08:25;5.90;99.90
5870;DHT22;2961;47.702;9.410;2024-02-26T03:10:52;5.80;99.90
5870;DHT22;2961;47.702;9.410;2024-02-26T03:13:21;5.80;99.90
5870;DHT22;2961;47.702;9.410;2024-02-26T03:15:47;5.80;99.90
5870;DHT22;2961;47.702;9.410;2024-02-26T03:18:14;5.80;99.90
5870;DHT22;2961;47.702;9.410;2024-02-26T03:20:41;5.70;99.90
5870;DHT22;2961;47.702;9.410;2024-02-26T03:23:08;5.60;99.90
5870;DHT22;2961;47.702;9.410;2024-02-26T03:25:38;5.60;99.90
5870;DHT22;2961;47.702;9.410;2024-02-26T03:28:05;5.60;99.90
5870;DHT22;2961;47.702;9.410;2024-02-26T03:30:33;5.70;99.90
5870;DHT22;2961;47.702;9.410;2024-02-26T03:33:01;5.60;99.90
5870;DHT22;2961;47.702;9.410;2024-02-26T03:35:28;5.80;99.90
5870;DHT22;2961;47.702;9.410;2024-02-26T03:37:54;5.90;99.90
5870;DHT22;2961;47.702;9.410;2024-02-26T03:40:21;5.90;99.90
5870;DHT22;2961;47.702;9.410;2024-02-26T03:42:48;5.90;99.90
5870;DHT22;2961;47.702;9.410;2024-02-26T03:45:15;5.80;99.90
5870;DHT22;2961;47.702;9.410;2024-02-26T03:47:43;5.80;99.90
5870;DHT22;2961;47.702;9.410;2024-02-26T03:50:10;5.80;99.90
5870;DHT22;2961;47.702;9.410;2024-02-26T03:52:37;5.70;99.90
5870;DHT22;2961;47.702;9.410;2024-02-26T03:55:04;5.70;99.90
5870;DHT22;2961;47.702;9.410;2024-02-26T03:57:31;5.80;99.90
5870;DHT22;2961;47.702;9.410;2024-02-26T03:59:58;5.70;99.90
5870;DHT22;2961;47.702;9.410;2024-02-26T04:02:24;5.70;99.90
5870;DHT22;2961;47.702;9.410;2024-02-26T04:04:53;5.60;99.90
5870;DHT22;2961;47.702;9.410;2024-02-26T04:07:20;5.60;99.90
5870;DHT22;2961;47.702;9.410;2024-02-26T04:09:47;5.60;99.90
5870;DHT22;2961;47.702;9.410;2024-02-26T04:12:14;5.60;99.90
5870;DHT22;2961;47.702;9.410;2024-02-26T04:14:41;5.60;99.90
5870;DHT22;2961;47.702;9.410;2024-02-26T04:17:07;5.50;99.90
5870;DHT22;2961;47.702;9.410;2024-02-26T04:19:34;5.40;99.90
5870;DHT22;2961;47.702;9.410;2024-02-26T04:22:02;5.40;99.90
5870;DHT22;2961;47.702;9.410;2024-02-26T04:24:29;5.50;99.90
5870;DHT22;2961;47.702;9.410;2024-02-26T04:26:56;5.80;99.90
5870;DHT22;2961;47.702;9.410;2024-02-26T04:29:22;6.10;99.90
5870;DHT22;2961;47.702;9.410;2024-02-26T04:31:49;6.30;99.90
5870;DHT22;2961;47.702;9.410;2024-02-26T04:34:15;6.40;99.90
5870;DHT22;2961;47.702;9.410;2024-02-26T04:36:42;6.50;99.90
5870;DHT22;2961;47.702;9.410;2024-02-26T04:39:10;6.60;99.90
5870;DHT22;2961;47.702;9.410;2024-02-26T04:41:37;6.80;99.90
5870;DHT22;2961;47.702;9.410;2024-02-26T04:44:04;7.10;99.90
5870;DHT22;2961;47.702;9.410;2024-02-26T04:46:31;7.20;99.90
5870;DHT22;2961;47.702;9.410;2024-02-26T04:48:58;7.20;99.90
5870;DHT22;2961;47.702;9.410;2024-02-26T04:51:25;7.10;99.90
5870;DHT22;2961;47.702;9.410;2024-02-26T04:53:51;6.90;99.90
5870;DHT22;2961;47.702;9.410;2024-02-26T04:56:21;6.60;99.90
5870;DHT22;2961;47.702;9.410;2024-02-26T04:58:48;6.40;99.90
5870;DHT22;2961;47.702;9.410;2024-02-26T05:01:15;6.20;99.90
5870;DHT22;2961;47.702;9.410;2024-02-26T05:03:42;6.10;99.90
5870;DHT22;2961;47.702;9.410;2024-02-26T05:06:09;6.10;99.90
5870;DHT22;2961;47.702;9.410;2024-02-26T05:08:36;6.10;99.90
5870;DHT22;2961;47.702;9.410;2024-02-26T05:11:04;6.00;99.90
5870;DHT22;2961;47.702;9.410;2024-02-26T05:13:33;6.00;99.90
5870;DHT22;2961;47.702;9.410;2024-02-26T05:15:59;5.90;99.90
5870;DHT22;2961;47.702;9.410;2024-02-26T05:18:27;5.90;99.90
5870;DHT22;2961;47.702;9.410;2024-02-26T05:20:54;5.80;99.90
5870;DHT22;2961;47.702;9.410;2024-02-26T05:23:21;5.60;99.90
5870;DHT22;2961;47.702;9.410;2024-02-26T05:25:48;5.50;99.90
5870;DHT22;2961;47.702;9.410;2024-02-26T05:28:15;5.40;99.90
5870;DHT22;2961;47.702;9.410;2024-02-26T05:30:43;5.20;99.90
5870;DHT22;2961;47.702;9.410;2024-02-26T05:33:10;5.10;99.90
5870;DHT22;2961;47.702;9.410;2024-02-26T05:35:37;5.00;99.90
5870;DHT22;2961;47.702;9.410;2024-02-26T05:38:04;4.90;99.90
5870;DHT22;2961;47.702;9.410;2024-02-26T05:40:31;4.80;99.90
5870;DHT22;2961;47.702;9.410;2024-02-26T05:42:58;4.70;99.90
5870;DHT22;2961;47.702;9.410;2024-02-26T05:45:25;4.60;99.90
5870;DHT22;2961;47.702;9.410;2024-02-26T05:47:53;4.50;99.90
5870;DHT22;2961;47.702;9.410;2024-02-26T05:50:20;4.50;99.90
5870;DHT22;2961;47.702;9.410;2024-02-26T05:52:46;4.50;99.90
5870;DHT22;2961;47.702;9.410;2024-02-26T05:55:13;4.60;99.90
5870;DHT22;2961;47.702;9.410;2024-02-26T05:57:40;4.70;99.90
5870;DHT22;2961;47.702;9.410;2024-02-26T06:00:08;4.70;99.90
5870;DHT22;2961;47.702;9.410;2024-02-26T06:02:35;4.80;99.90
5870;DHT22;2961;47.702;9.410;2024-02-26T06:05:03;4.90;99.90
5870;DHT22;2961;47.702;9.410;2024-02-26T06:07:32;5.00;99.90
5870;DHT22;2961;47.702;9.410;2024-02-26T06:10:00;5.00;99.90
5870;DHT22;2961;47.702;9.410;2024-02-26T06:12:28;4.90;99.90
5870;DHT22;2961;47.702;9.410;2024-02-26T06:14:56;4.80;99.90
5870;DHT22;2961;47.702;9.410;2024-02-26T06:17:23;4.90;99.90
5870;DHT22;2961;47.702;9.410;2024-02-26T06:19:50;4.90;99.90
5870;DHT22;2961;47.702;9.410;2024-02-26T06:22:18;4.80;99.90
5870;DHT22;2961;47.702;9.410;2024-02-26T06:24:45;4.70;99.90
5870;DHT22;2961;47.702;9.410;2024-02-26T06:27:12;4.60;99.90
5870;DHT22;2961;47.702;9.410;2024-02-26T06:29:39;4.50;99.90
5870;DHT22;2961;47.702;9.410;2024-02-26T06:32:06;4.50;99.90
5870;DHT22;2961;47.702;9.410;2024-02-26T06:34:33;4.50;99.90
5870;DHT22;2961;47.702;9.410;2024-02-26T06:37:00;4.50;99.90
5870;DHT22;2961;47.702;9.410;2024-02-26T06:39:28;4.60;99.90
5870;DHT22;2961;47.702;9.410;2024-02-26T06:41:54;4.60;99.90
5870;DHT22;2961;47.702;9.410;2024-02-26T06:44:26;4.50;99.90
5870;DHT22;2961;47.702;9.410;2024-02-26T06:46:57;4.60;99.90
5870;DHT22;2961;47.702;9.410;2024-02-26T06:49:24;4.70;99.90
5870;DHT22;2961;47.702;9.410;2024-02-26T06:51:50;4.70;99.90
5870;DHT22;2961;47.702;9.410;2024-02-26T06:54:17;4.50;99.90
5870;DHT22;2961;47.702;9.410;2024-02-26T06:56:45;4.30;99.90
5870;DHT22;2961;47.702;9.410;2024-02-26T06:59:12;4.20;99.90
5870;DHT22;2961;47.702;9.410;2024-02-26T07:01:40;4.20;99.90
5870;DHT22;2961;47.702;9.410;2024-02-26T07:04:07;4.30;99.90
5870;DHT22;2961;47.702;9.410;2024-02-26T07:06:34;4.30;99.90
5870;DHT22;2961;47.702;9.410;2024-02-26T07:09:01;4.40;99.90
5870;DHT22;2961;47.702;9.410;2024-02-26T07:11:28;4.60;99.90
5870;DHT22;2961;47.702;9.410;2024-02-26T07:13:56;4.80;99.90
5870;DHT22;2961;47.702;9.410;2024-02-26T07:16:22;5.00;99.90
5870;DHT22;2961;47.702;9.410;2024-02-26T07:18:49;5.20;99.90
5870;DHT22;2961;47.702;9.410;2024-02-26T07:21:16;5.40;99.90
5870;DHT22;2961;47.702;9.410;2024-02-26T07:23:43;5.70;99.90
5870;DHT22;2961;47.702;9.410;2024-02-26T07:26:10;5.90;99.90
5870;DHT22;2961;47.702;9.410;2024-02-26T07:28:37;6.20;99.90
5870;DHT22;2961;47.702;9.410;2024-02-26T07:31:05;6.50;99.90
5870;DHT22;2961;47.702;9.410;2024-02-26T07:33:32;6.70;99.90
5870;DHT22;2961;47.702;9.410;2024-02-26T07:35:59;6.90;99.90
5870;DHT22;2961;47.702;9.410;2024-02-26T07:38:26;7.00;99.90
5870;DHT22;2961;47.702;9.410;2024-02-26T07:40:52;7.20;99.90
5870;DHT22;2961;47.702;9.410;2024-02-26T07:43:19;7.30;99.90
5870;DHT22;2961;47.702;9.410;2024-02-26T07:45:46;7.40;99.90
5870;DHT22;2961;47.702;9.410;2024-02-26T07:48:14;7.50;99.90
5870;DHT22;2961;47.702;9.410;2024-02-26T07:50:41;7.50;99.90
5870;DHT22;2961;47.702;9.410;2024-02-26T07:53:08;7.60;99.90
5870;DHT22;2961;47.702;9.410;2024-02-26T07:55:34;7.50;99.90
5870;DHT22;2961;47.702;9.410;2024-02-26T07:58:01;7.50;99.90
5870;DHT22;2961;47.702;9.410;2024-02-26T08:00:28;7.40;99.90
5870;DHT22;2961;47.702;9.410;2024-02-26T08:02:55;7.50;99.90
5870;DHT22;2961;47.702;9.410;2024-02-26T08:05:23;7.50;99.90
5870;DHT22;2961;47.702;9.410;2024-02-26T08:07:50;7.50;99.90
5870;DHT22;2961;47.702;9.410;2024-02-26T08:10:17;7.40;99.90
5870;DHT22;2961;47.702;9.410;2024-02-26T08:12:44;7.40;99.90
5870;DHT22;2961;47.702;9.410;2024-02-26T08:15:11;7.30;99.90
5870;DHT22;2961;47.702;9.410;2024-02-26T08:17:38;7.30;99.90
5870;DHT22;2961;47.702;9.410;2024-02-26T08:20:05;7.30;99.90
5870;DHT22;2961;47.702;9.410;2024-02-26T08:22:34;7.30;99.90
5870;DHT22;2961;47.702;9.410;2024-02-26T08:25:00;7.30;99.90
5870;DHT22;2961;47.702;9.410;2024-02-26T08:27:32;7.30;99.90
5870;DHT22;2961;47.702;9.410;2024-02-26T08:29:58;7.40;99.90
5870;DHT22;2961;47.702;9.410;2024-02-26T08:32:25;7.50;99.90
5870;DHT22;2961;47.702;9.410;2024-02-26T08:34:52;7.70;99.90
5870;DHT22;2961;47.702;9.410;2024-02-26T08:37:19;7.70;99.90
5870;DHT22;2961;47.702;9.410;2024-02-26T08:39:47;7.90;99.90
5870;DHT22;2961;47.702;9.410;2024-02-26T08:42:14;8.00;99.90
5870;DHT22;2961;47.702;9.410;2024-02-26T08:44:40;7.90;99.90
5870;DHT22;2961;47.702;9.410;2024-02-26T08:47:07;8.00;99.90
5870;DHT22;2961;47.702;9.410;2024-02-26T08:49:34;7.80;99.90
5870;DHT22;2961;47.702;9.410;2024-02-26T08:52:01;7.80;99.90
5870;DHT22;2961;47.702;9.410;2024-02-26T08:54:27;7.80;99.90
5870;DHT22;2961;47.702;9.410;2024-02-26T08:56:56;7.90;99.90
5870;DHT22;2961;47.702;9.410;2024-02-26T08:59:22;8.00;99.90
5870;DHT22;2961;47.702;9.410;2024-02-26T09:01:49;7.90;99.90
5870;DHT22;2961;47.702;9.410;2024-02-26T09:04:16;8.10;99.90
5870;DHT22;2961;47.702;9.410;2024-02-26T09:06:42;8.10;99.90
5870;DHT22;2961;47.702;9.410;2024-02-26T09:09:09;8.10;99.90
5870;DHT22;2961;47.702;9.410;2024-02-26T09:11:36;8.10;99.90
5870;DHT22;2961;47.702;9.410;2024-02-26T09:14:04;8.10;99.90
5870;DHT22;2961;47.702;9.410;2024-02-26T09:16:31;8.10;99.90
5870;DHT22;2961;47.702;9.410;2024-02-26T09:18:58;8.20;99.90
5870;DHT22;2961;47.702;9.410;2024-02-26T09:21:25;8.30;99.90
5870;DHT22;2961;47.702;9.410;2024-02-26T09:23:53;8.40;99.90
5870;DHT22;2961;47.702;9.410;2024-02-26T09:26:20;8.50;99.90
5870;DHT22;2961;47.702;9.410;2024-02-26T09:28:47;8.50;99.90
5870;DHT22;2961;47.702;9.410;2024-02-26T09:31:17;8.60;99.90
5870;DHT22;2961;47.702;9.410;2024-02-26T09:33:44;8.80;99.90
5870;DHT22;2961;47.702;9.410;2024-02-26T09:36:11;8.90;99.90
5870;DHT22;2961;47.702;9.410;2024-02-26T09:38:39;9.00;99.90
5870;DHT22;2961;47.702;9.410;2024-02-26T09:41:06;9.00;99.90
5870;DHT22;2961;47.702;9.410;2024-02-26T09:43:35;9.00;99.90
5870;DHT22;2961;47.702;9.410;2024-02-26T09:46:02;9.10;99.90
5870;DHT22;2961;47.702;9.410;2024-02-26T09:48:29;9.10;99.90
5870;DHT22;2961;47.702;9.410;2024-02-26T09:50:57;9.20;99.90
5870;DHT22;2961;47.702;9.410;2024-02-26T09:53:23;9.30;99.90
5870;DHT22;2961;47.702;9.410;2024-02-26T09:55:50;9.40;99.90
5870;DHT22;2961;47.702;9.410;2024-02-26T09:58:18;9.50;99.90
5870;DHT22;2961;47.702;9.410;2024-02-26T10:00:49;9.60;99.90
5870;DHT22;2961;47.702;9.410;2024-02-26T10:03:21;9.70;99.90
5870;DHT22;2961;47.702;9.410;2024-02-26T10:05:50;9.90;99.90
5870;DHT22;2961;47.702;9.410;2024-02-26T10:08:21;10.10;99.90
5870;DHT22;2961;47.702;9.410;2024-02-26T10:10:49;10.20;99.90
5870;DHT22;2961;47.702;9.410;2024-02-26T10:13:16;10.40;99.90
5870;DHT22;2961;47.702;9.410;2024-02-26T10:15:43;10.40;99.90
5870;DHT22;2961;47.702;9.410;2024-02-26T10:18:10;10.50;99.90
5870;DHT22;2961;47.702;9.410;2024-02-26T10:20:36;10.50;99.90
5870;DHT22;2961;47.702;9.410;2024-02-26T10:23:05;10.50;99.90
5870;DHT22;2961;47.702;9.410;2024-02-26T10:25:32;10.40;99.90
5870;DHT22;2961;47.702;9.410;2024-02-26T10:28:00;10.30;99.90
5870;DHT22;2961;47.702;9.410;2024-02-26T10:30:28;10.40;99.90
5870;DHT22;2961;47.702;9.410;2024-02-26T10:32:56;10.50;99.90
5870;DHT22;2961;47.702;9.410;2024-02-26T10:35:23;10.70;99.90
5870;DHT22;2961;47.702;9.410;2024-02-26T10:37:50;10.70;99.90
5870;DHT22;2961;47.702;9.410;2024-02-26T10:40:18;10.80;99.90
5870;DHT22;2961;47.702;9.410;2024-02-26T10:42:45;11.00;99.90
5870;DHT22;2961;47.702;9.410;2024-02-26T10:45:12;11.10;99.90
5870;DHT22;2961;47.702;9.410;2024-02-26T10:47:40;11.10;99.90
5870;DHT22;2961;47.702;9.410;2024-02-26T10:50:08;11.10;99.90
5870;DHT22;2961;47.702;9.410;2024-02-26T10:52:36;11.10;99.90
5870;DHT22;2961;47.702;9.410;2024-02-26T10:55:04;11.10;99.90
5870;DHT22;2961;47.702;9.410;2024-02-26T10:57:35;11.10;99.90
5870;DHT22;2961;47.702;9.410;2024-02-26T11:00:05;11.20;99.90
5870;DHT22;2961;47.702;9.410;2024-02-26T11:02:33;11.20;99.90
5870;DHT22;2961;47.702;9.410;2024-02-26T11:05:02;11.30;99.90
5870;DHT22;2961;47.702;9.410;2024-02-26T11:07:30;11.30;99.90
5870;DHT22;2961;47.702;9.410;2024-02-26T11:09:57;11.30;99.90
5870;DHT22;2961;47.702;9.410;2024-02-26T11:12:27;11.30;99.90
5870;DHT22;2961;47.702;9.410;2024-02-26T11:14:56;11.30;99.90
5870;DHT22;2961;47.702;9.410;2024-02-26T11:17:26;11.00;99.90
5870;DHT22;2961;47.702;9.410;2024-02-26T11:19:55;10.70;99.90
5870;DHT22;2961;47.702;9.410;2024-02-26T11:22:23;10.40;99.90
5870;DHT22;2961;47.702;9.410;2024-02-26T11:24:52;10.10;99.90
5870;DHT22;2961;47.702;9.410;2024-02-26T11:27:23;9.90;99.90
5870;DHT22;2961;47.702;9.410;2024-02-26T11:29:52;9.80;99.90
5870;DHT22;2961;47.702;9.410;2024-02-26T11:32:21;9.60;99.90
5870;DHT22;2961;47.702;9.410;2024-02-26T11:34:48;9.50;99.90
5870;DHT22;2961;47.702;9.410;2024-02-26T11:37:17;9.40;99.90
5870;DHT22;2961;47.702;9.410;2024-02-26T11:39:45;9.40;99.90
5870;DHT22;2961;47.702;9.410;2024-02-26T11:42:14;9.30;99.90
5870;DHT22;2961;47.702;9.410;2024-02-26T11:44:42;9.20;99.90
5870;DHT22;2961;47.702;9.410;2024-02-26T11:47:12;9.10;99.90
5870;DHT22;2961;47.702;9.410;2024-02-26T11:49:40;9.10;99.90
5870;DHT22;2961;47.702;9.410;2024-02-26T11:52:09;9.00;99.90
5870;DHT22;2961;47.702;9.410;2024-02-26T11:54:46;9.00;99.90
5870;DHT22;2961;47.702;9.410;2024-02-26T11:57:26;9.00;99.90
5870;DHT22;2961;47.702;9.410;2024-02-26T11:59:53;8.90;99.90
5870;DHT22;2961;47.702;9.410;2024-02-26T12:02:40;8.90;99.90
5870;DHT22;2961;47.702;9.410;2024-02-26T12:05:11;8.90;99.90
5870;DHT22;2961;47.702;9.410;2024-02-26T12:07:40;8.80;99.90
5870;DHT22;2961;47.702;9.410;2024-02-26T12:10:25;8.70;99.90
5870;DHT22;2961;47.702;9.410;2024-02-26T12:12:59;8.70;99.90
5870;DHT22;2961;47.702;9.410;2024-02-26T12:15:31;8.80;99.90
5870;DHT22;2961;47.702;9.410;2024-02-26T12:18:01;8.80;99.90
5870;DHT22;2961;47.702;9.410;2024-02-26T12:20:29;8.80;99.90
5870;DHT22;2961;47.702;9.410;2024-02-26T12:22:57;8.90;99.90
5870;DHT22;2961;47.702;9.410;2024-02-26T12:25:25;9.10;99.90
5870;DHT22;2961;47.702;9.410;2024-02-26T12:27:53;9.20;99.90
5870;DHT22;2961;47.702;9.410;2024-02-26T12:30:20;9.20;99.90
5870;DHT22;2961;47.702;9.410;2024-02-26T12:32:47;9.40;99.90
5870;DHT22;2961;47.702;9.410;2024-02-26T12:35:15;9.60;99.90
5870;DHT22;2961;47.702;9.410;2024-02-26T12:37:43;9.70;99.90
5870;DHT22;2961;47.702;9.410;2024-02-26T12:40:11;10.00;99.90
5870;DHT22;2961;47.702;9.410;2024-02-26T12:42:38;10.40;99.90
5870;DHT22;2961;47.702;9.410;2024-02-26T12:45:07;10.70;99.90
5870;DHT22;2961;47.702;9.410;2024-02-26T12:47:37;10.90;99.90
5870;DHT22;2961;47.702;9.410;2024-02-26T12:50:05;10.80;99.90
5870;DHT22;2961;47.702;9.410;2024-02-26T12:52:33;10.70;99.90
5870;DHT22;2961;47.702;9.410;2024-02-26T12:55:02;10.80;99.90
5870;DHT22;2961;47.702;9.410;2024-02-26T12:57:30;10.90;99.90
5870;DHT22;2961;47.702;9.410;2024-02-26T12:59:58;11.00;99.90
5870;DHT22;2961;47.702;9.410;2024-02-26T13:02:25;11.10;99.90
5870;DHT22;2961;47.702;9.410;2024-02-26T13:04:53;11.20;99.90
5870;DHT22;2961;47.702;9.410;2024-02-26T13:07:21;11.30;99.90
5870;DHT22;2961;47.702;9.410;2024-02-26T13:09:48;11.40;99.90
5870;DHT22;2961;47.702;9.410;2024-02-26T13:12:17;11.50;99.90
5870;DHT22;2961;47.702;9.410;2024-02-26T13:14:44;11.50;99.90
5870;DHT22;2961;47.702;9.410;2024-02-26T13:17:11;11.60;99.90
5870;DHT22;2961;47.702;9.410;2024-02-26T13:19:37;11.60;99.90
5870;DHT22;2961;47.702;9.410;2024-02-26T13:22:15;11.70;99.90
5870;DHT22;2961;47.702;9.410;2024-02-26T13:24:42;11.90;99.90
5870;DHT22;2961;47.702;9.410;2024-02-26T13:27:09;12.00;99.90
5870;DHT22;2961;47.702;9.410;2024-02-26T13:29:37;12.00;99.90
5870;DHT22;2961;47.702;9.410;2024-02-26T13:32:04;12.20;99.90
5870;DHT22;2961;47.702;9.410;2024-02-26T13:34:32;12.30;99.90
5870;DHT22;2961;47.702;9.410;2024-02-26T13:37:00;12.40;99.90
5870;DHT22;2961;47.702;9.410;2024-02-26T13:39:28;12.40;99.90
5870;DHT22;2961;47.702;9.410;2024-02-26T13:41:55;12.50;99.90
5870;DHT22;2961;47.702;9.410;2024-02-26T13:44:22;12.50;99.90
5870;DHT22;2961;47.702;9.410;2024-02-26T13:46:51;12.50;99.90
5870;DHT22;2961;47.702;9.410;2024-02-26T13:49:17;12.30;99.90
5870;DHT22;2961;47.702;9.410;2024-02-26T13:51:44;11.90;99.90
5870;DHT22;2961;47.702;9.410;2024-02-26T13:54:11;11.80;99.90
5870;DHT22;2961;47.702;9.410;2024-02-26T13:56:40;11.50;99.90
5870;DHT22;2961;47.702;9.410;2024-02-26T13:59:06;11.50;99.90
5870;DHT22;2961;47.702;9.410;2024-02-26T14:01:33;11.50;99.90
5870;DHT22;2961;47.702;9.410;2024-02-26T14:04:01;11.30;99.90
5870;DHT22;2961;47.702;9.410;2024-02-26T14:06:30;11.20;99.90
5870;DHT22;2961;47.702;9.410;2024-02-26T14:08:57;11.20;99.90
5870;DHT22;2961;47.702;9.410;2024-02-26T14:11:24;11.10;99.90
5870;DHT22;2961;47.702;9.410;2024-02-26T14:13:51;11.00;99.90
5870;DHT22;2961;47.702;9.410;2024-02-26T14:16:18;10.70;99.90
5870;DHT22;2961;47.702;9.410;2024-02-26T14:18:45;10.60;99.90
5870;DHT22;2961;47.702;9.410;2024-02-26T14:21:14;10.40;99.90
5870;DHT22;2961;47.702;9.410;2024-02-26T14:23:41;10.30;99.90
5870;DHT22;2961;47.702;9.410;2024-02-26T14:26:10;10.30;99.90
5870;DHT22;2961;47.702;9.410;2024-02-26T14:28:36;10.40;99.90
5870;DHT22;2961;47.702;9.410;2024-02-26T14:33:31;10.70;99.90
5870;DHT22;2961;47.702;9.410;2024-02-26T14:35:58;10.90;99.90
5870;DHT22;2961;47.702;9.410;2024-02-26T14:38:26;11.00;99.90
5870;DHT22;2961;47.702;9.410;2024-02-26T14:40:53;11.10;99.90
5870;DHT22;2961;47.702;9.410;2024-02-26T14:43:19;11.20;99.90
5870;DHT22;2961;47.702;9.410;2024-02-26T14:45:46;11.20;99.90
5870;DHT22;2961;47.702;9.410;2024-02-26T14:48:13;11.10;99.90
5870;DHT22;2961;47.702;9.410;2024-02-26T14:50:40;10.90;99.90
5870;DHT22;2961;47.702;9.410;2024-02-26T14:53:06;11.00;99.90
5870;DHT22;2961;47.702;9.410;2024-02-26T14:55:35;11.00;99.90
5870;DHT22;2961;47.702;9.410;2024-02-26T14:58:01;11.10;99.90
5870;DHT22;2961;47.702;9.410;2024-02-26T15:00:28;11.10;99.90
5870;DHT22;2961;47.702;9.410;2024-02-26T15:02:59;11.20;99.90
5870;DHT22;2961;47.702;9.410;2024-02-26T15:05:26;11.20;99.90
5870;DHT22;2961;47.702;9.410;2024-02-26T15:07:52;11.20;99.90
5870;DHT22;2961;47.702;9.410;2024-02-26T15:10:19;11.10;99.90
5870;DHT22;2961;47.702;9.410;2024-02-26T15:12:47;11.20;99.90
5870;DHT22;2961;47.702;9.410;2024-02-26T15:15:16;11.20;99.90
5870;DHT22;2961;47.702;9.410;2024-02-26T15:17:43;11.20;99.90
5870;DHT22;2961;47.702;9.410;2024-02-26T15:20:10;11.20;99.90
5870;DHT22;2961;47.702;9.410;2024-02-26T15:22:37;11.20;99.90
5870;DHT22;2961;47.702;9.410;2024-02-26T15:25:04;11.20;99.90
5870;DHT22;2961;47.702;9.410;2024-02-26T15:27:31;11.20;99.90
5870;DHT22;2961;47.702;9.410;2024-02-26T15:29:59;11.20;99.90
5870;DHT22;2961;47.702;9.410;2024-02-26T15:32:26;11.10;99.90
5870;DHT22;2961;47.702;9.410;2024-02-26T15:34:53;11.10;99.90
5870;DHT22;2961;47.702;9.410;2024-02-26T15:37:20;11.10;99.90
5870;DHT22;2961;47.702;9.410;2024-02-26T15:39:47;11.10;99.90
5870;DHT22;2961;47.702;9.410;2024-02-26T15:42:14;11.10;99.90
5870;DHT22;2961;47.702;9.410;2024-02-26T15:44:41;11.00;99.90
5870;DHT22;2961;47.702;9.410;2024-02-26T15:47:10;11.00;99.90
5870;DHT22;2961;47.702;9.410;2024-02-26T15:49:36;11.00;99.90
5870;DHT22;2961;47.702;9.410;2024-02-26T15:52:04;11.00;99.90
5870;DHT22;2961;47.702;9.410;2024-02-26T15:54:31;11.00;99.90
5870;DHT22;2961;47.702;9.410;2024-02-26T15:56:57;11.00;99.90
5870;DHT22;2961;47.702;9.410;2024-02-26T15:59:24;10.90;99.90
5870;DHT22;2961;47.702;9.410;2024-02-26T16:01:50;10.80;99.90
5870;DHT22;2961;47.702;9.410;2024-02-26T16:04:18;10.70;99.90
5870;DHT22;2961;47.702;9.410;2024-02-26T16:06:48;10.60;99.90
5870;DHT22;2961;47.702;9.410;2024-02-26T16:09:15;10.40;99.90
5870;DHT22;2961;47.702;9.410;2024-02-26T16:11:42;10.40;99.90
5870;DHT22;2961;47.702;9.410;2024-02-26T16:14:12;10.30;99.90
5870;DHT22;2961;47.702;9.410;2024-02-26T16:16:47;10.30;99.90